Time;durP1;ratioP1;P1;durP2;ratioP2;P2;SDS_P1;SDS_P2;PMS_P1;PMS_P2;Temp;Humidity;BMP_temperature;BMP_pressure;BME280_temperature;BME280_humidity;BME280_pressure;Samples;Min_cycle;Max_cycle;Signal;HPM_P1;HPM_P2
2023/01/16 00:01:39;;;;;;;15.98;15.05;;;4.70;99.90;;;;;;4994313;28;20036;-77
2023/01/16 00:04:06;;;;;;;15.50;14.45;;;4.70;99.90;;;;;;5007541;28;20056;-77
2023/01/16 00:06:35;;;;;;;17.17;15.70;;;4.70;99.90;;;;;;5002463;28;20448;-79
2023/01/16 00:09:04;;;;;;;15.52;14.82;;;4.60;99.90;;;;;;5001370;28;20083;-76
2023/01/16 00:11:30;;;;;;;15.55;14.30;;;4.70;99.90;;;;;;5012716;28;20612;-76
2023/01/16 00:13:58;;;;;;;15.73;14.57;;;4.60;99.90;;;;;;4976615;28;20373;-78
2023/01/16 00:16:26;;;;;;;14.65;13.77;;;4.60;99.90;;;;;;5004458;28;20053;-79
2023/01/16 00:18:54;;;;;;;15.32;14.10;;;4.50;99.90;;;;;;4990472;28;20432;-78
2023/01/16 00:21:25;;;;;;;15.55;14.35;;;4.50;99.90;;;;;;5001529;28;20041;-78
2023/01/16 00:23:54;;;;;;;14.93;13.95;;;4.50;99.90;;;;;;4995149;28;20052;-77
2023/01/16 00:26:21;;;;;;;14.68;13.57;;;4.50;99.90;;;;;;4999465;28;20037;-76
2023/01/16 00:28:48;;;;;;;14.73;13.77;;;4.60;99.90;;;;;;4996436;28;20099;-76
2023/01/16 00:31:15;;;;;;;15.90;14.85;;;4.60;99.90;;;;;;4993651;28;20052;-75
2023/01/16 00:33:45;;;;;;;15.23;14.43;;;4.60;99.90;;;;;;4987529;28;20046;-74
2023/01/16 00:36:12;;;;;;;16.45;15.23;;;4.50;99.90;;;;;;4997783;28;20439;-77
2023/01/16 00:38:39;;;;;;;16.55;15.27;;;4.50;99.90;;;;;;5006084;28;20105;-77
2023/01/16 00:41:06;;;;;;;15.85;15.02;;;4.40;99.90;;;;;;5013446;28;20067;-78
2023/01/16 00:43:33;;;;;;;16.25;15.27;;;4.40;99.90;;;;;;5008290;28;20048;-77
2023/01/16 00:46:00;;;;;;;15.73;14.75;;;4.40;99.90;;;;;;5005842;28;20048;-77
2023/01/16 00:48:27;;;;;;;16.10;14.82;;;4.40;99.90;;;;;;5005609;28;20435;-78
2023/01/16 00:50:53;;;;;;;15.73;14.52;;;4.30;99.90;;;;;;4997381;28;20049;-79
2023/01/16 00:53:20;;;;;;;15.18;14.18;;;4.30;99.90;;;;;;5018449;28;20045;-76
2023/01/16 00:55:47;;;;;;;15.63;14.70;;;4.30;99.90;;;;;;5005388;28;20516;-77
2023/01/16 00:58:14;;;;;;;15.98;14.70;;;4.30;99.90;;;;;;5004176;28;20042;-77
2023/01/16 01:00:43;;;;;;;15.43;14.30;;;4.30;99.90;;;;;;4981785;28;20043;-79
2023/01/16 01:03:10;;;;;;;16.48;14.80;;;4.30;99.90;;;;;;5018295;28;20045;-77
2023/01/16 01:05:38;;;;;;;15.80;14.60;;;4.30;99.90;;;;;;5017519;28;20751;-75
2023/01/16 01:08:05;;;;;;;15.10;14.30;;;4.30;99.90;;;;;;4997323;28;20508;-78
2023/01/16 01:10:35;;;;;;;15.90;14.77;;;4.20;99.90;;;;;;5002267;28;20103;-78
2023/01/16 01:13:01;;;;;;;15.05;14.13;;;4.20;99.90;;;;;;5005469;28;20056;-75
2023/01/16 01:15:28;;;;;;;15.35;14.40;;;4.20;99.90;;;;;;5010626;28;20433;-77
2023/01/16 01:17:55;;;;;;;15.38;14.50;;;4.30;99.90;;;;;;5013516;28;20037;-78
2023/01/16 01:20:21;;;;;;;14.40;13.70;;;4.20;99.90;;;;;;5000834;28;20329;-77
2023/01/16 01:22:48;;;;;;;14.63;13.80;;;4.10;99.90;;;;;;5010032;28;20064;-76
2023/01/16 01:25:15;;;;;;;14.45;13.38;;;4.10;99.90;;;;;;5019873;28;20057;-75
2023/01/16 01:27:41;;;;;;;14.38;13.68;;;3.90;99.90;;;;;;5007432;28;20168;-76
2023/01/16 01:30:09;;;;;;;14.40;13.60;;;3.90;99.90;;;;;;5013636;28;20037;-76
2023/01/16 01:32:37;;;;;;;13.80;12.90;;;3.80;99.90;;;;;;5015161;28;20136;-77
2023/01/16 01:35:08;;;;;;;13.57;12.60;;;3.70;99.90;;;;;;4996668;28;20560;-78
2023/01/16 01:37:35;;;;;;;12.63;12.02;;;3.70;99.90;;;;;;5001376;28;20059;-78
2023/01/16 01:40:04;;;;;;;13.48;12.43;;;3.70;99.90;;;;;;5027051;28;20056;-79
2023/01/16 01:42:42;;;;;;;12.55;11.80;;;3.60;99.90;;;;;;5004624;28;20034;-75
2023/01/16 01:45:34;;;;;;;11.32;10.50;;;3.60;99.90;;;;;;5007092;28;20509;-77
2023/01/16 01:48:13;;;;;;;12.07;11.30;;;3.50;99.90;;;;;;5002632;28;20449;-76
2023/01/16 01:50:52;;;;;;;11.45;10.25;;;3.50;99.90;;;;;;5000367;28;20169;-76
2023/01/16 01:53:37;;;;;;;10.48;9.60;;;3.40;99.90;;;;;;4990614;28;20049;-77
2023/01/16 01:56:13;;;;;;;9.90;9.30;;;3.40;99.90;;;;;;4995317;28;20041;-76
2023/01/16 01:58:40;;;;;;;9.00;8.30;;;3.40;99.90;;;;;;4992024;28;20049;-76
2023/01/16 02:01:12;;;;;;;9.23;8.25;;;3.40;99.90;;;;;;5018628;28;20040;-76
2023/01/16 02:03:51;;;;;;;8.80;7.80;;;3.40;99.90;;;;;;5024199;28;20080;-75
2023/01/16 02:06:22;;;;;;;9.00;8.40;;;3.30;99.90;;;;;;5008836;28;20124;-77
2023/01/16 02:08:53;;;;;;;8.55;8.05;;;3.30;99.90;;;;;;5007378;28;20497;-78
2023/01/16 02:11:35;;;;;;;8.55;8.15;;;3.30;99.90;;;;;;4991960;28;20132;-76
2023/01/16 02:14:07;;;;;;;8.68;7.97;;;3.30;99.90;;;;;;5009239;28;20063;-79
2023/01/16 02:20:07;;;;;;;7.68;7.18;;;3.30;99.90;;;;;;5011697;28;20077;-76
2023/01/16 02:23:12;;;;;;;9.50;7.90;;;3.30;99.90;;;;;;4973261;28;20297;-79
2023/01/16 02:25:47;;;;;;;7.88;7.47;;;3.30;99.90;;;;;;5007525;28;20038;-79
2023/01/16 02:28:26;;;;;;;8.25;7.70;;;3.30;99.90;;;;;;5011448;28;20045;-78
2023/01/16 02:31:17;;;;;;;7.80;7.30;;;3.40;99.90;;;;;;5003268;28;20049;-79
2023/01/16 02:33:53;;;;;;;7.80;7.40;;;3.40;99.90;;;;;;4994541;28;20041;-77
2023/01/16 02:36:44;;;;;;;11.30;8.32;;;3.40;99.90;;;;;;5031946;28;20053;-77
2023/01/16 02:39:53;;;;;;;7.35;7.05;;;3.30;99.90;;;;;;5013288;28;20088;-78
2023/01/16 02:42:38;;;;;;;7.45;7.00;;;3.30;99.90;;;;;;5006037;28;20068;-78
2023/01/16 02:45:18;;;;;;;7.05;6.60;;;3.30;99.90;;;;;;5014557;28;20044;-77
2023/01/16 02:48:00;;;;;;;7.00;6.50;;;3.20;99.90;;;;;;5000891;28;20133;-78
2023/01/16 02:50:42;;;;;;;7.68;7.18;;;3.20;99.90;;;;;;5023026;28;20078;-80
2023/01/16 02:53:19;;;;;;;6.63;6.22;;;3.10;99.90;;;;;;4998531;28;20041;-81
2023/01/16 02:55:52;;;;;;;7.72;6.55;;;3.10;99.90;;;;;;5016181;28;20049;-83
2023/01/16 02:58:20;;;;;;;6.75;6.20;;;3.00;99.90;;;;;;5002990;28;20647;-77
2023/01/16 03:00:59;;;;;;;9.07;6.30;;;3.00;99.90;;;;;;5013054;28;20044;-78
2023/01/16 03:03:55;;;;;;;5.72;5.32;;;3.00;99.90;;;;;;5012283;28;20044;-77
2023/01/16 03:07:02;;;;;;;5.20;4.80;;;2.90;99.90;;;;;;5006258;28;20068;-77
2023/01/16 03:09:48;;;;;;;5.60;5.20;;;3.00;99.90;;;;;;4978172;28;20055;-76
2023/01/16 03:12:41;;;;;;;6.50;5.63;;;2.90;99.90;;;;;;4992578;28;20046;-77
2023/01/16 03:15:17;;;;;;;5.47;4.60;;;2.90;99.90;;;;;;4999377;28;20140;-77
2023/01/16 03:17:50;;;;;;;5.07;4.57;;;2.90;99.90;;;;;;4996687;28;20523;-77
2023/01/16 03:20:30;;;;;;;5.03;4.45;;;2.80;99.90;;;;;;5012429;28;20081;-76
2023/01/16 03:23:15;;;;;;;5.35;3.67;;;2.80;99.90;;;;;;5013719;28;20064;-80
2023/01/16 03:25:55;;;;;;;5.63;3.80;;;2.80;99.90;;;;;;5005079;28;20125;-78
2023/01/16 03:28:39;;;;;;;4.28;3.88;;;2.70;99.90;;;;;;4995938;28;20153;-76
2023/01/16 03:31:33;;;;;;;5.57;4.70;;;2.70;99.90;;;;;;5008992;28;20037;-76
2023/01/16 03:34:32;;;;;;;8.02;4.90;;;2.80;99.90;;;;;;5019718;28;20045;-77
2023/01/16 03:37:11;;;;;;;6.88;4.20;;;2.80;99.90;;;;;;5014452;28;20116;-77
2023/01/16 03:39:46;;;;;;;5.65;3.90;;;2.80;99.90;;;;;;5028133;28;20041;-77
2023/01/16 03:42:21;;;;;;;11.77;4.35;;;2.90;99.90;;;;;;5026770;28;20064;-77
2023/01/16 03:44:55;;;;;;;9.65;4.80;;;2.90;99.90;;;;;;5033993;28;20131;-77
2023/01/16 03:47:55;;;;;;;5.78;4.10;;;2.90;99.90;;;;;;5008604;28;20666;-77
2023/01/16 03:50:25;;;;;;;4.78;4.38;;;2.90;99.90;;;;;;5013100;28;20049;-77
2023/01/16 03:52:56;;;;;;;7.28;4.40;;;2.90;99.90;;;;;;5012121;28;20256;-78
2023/01/16 03:55:39;;;;;;;4.53;4.22;;;2.90;99.90;;;;;;5028210;28;20045;-78
2023/01/16 03:58:24;;;;;;;6.22;4.07;;;2.90;99.90;;;;;;4999694;28;20186;-77
2023/01/16 04:01:00;;;;;;;5.70;4.47;;;3.00;99.90;;;;;;5016399;28;20041;-77
2023/01/16 04:03:39;;;;;;;5.13;4.20;;;3.00;99.90;;;;;;5002268;28;20079;-78
2023/01/16 04:06:23;;;;;;;4.95;4.50;;;3.00;99.90;;;;;;4989322;28;20390;-76
2023/01/16 04:08:54;;;;;;;8.07;4.63;;;3.10;99.90;;;;;;5009081;28;20046;-78
2023/01/16 04:11:23;;;;;;;7.38;3.83;;;3.10;99.90;;;;;;5010590;28;20968;-74
2023/01/16 04:13:52;;;;;;;9.35;4.70;;;3.10;99.90;;;;;;5018925;28;20513;-75
2023/01/16 04:16:21;;;;;;;6.13;4.53;;;3.10;99.90;;;;;;5016873;28;20136;-76
2023/01/16 04:18:55;;;;;;;5.82;4.57;;;3.20;99.90;;;;;;5015791;28;20514;-77
2023/01/16 04:21:26;;;;;;;4.55;3.88;;;3.20;99.90;;;;;;5025391;28;20124;-77
2023/01/16 04:23:57;;;;;;;3.63;3.33;;;3.10;99.90;;;;;;5009427;28;20424;-75
2023/01/16 04:26:23;;;;;;;3.95;3.65;;;3.00;99.90;;;;;;4998299;28;20044;-77
2023/01/16 04:28:54;;;;;;;7.82;3.88;;;2.90;99.90;;;;;;5012482;28;20431;-76
2023/01/16 04:31:23;;;;;;;4.10;3.47;;;2.90;99.90;;;;;;5014097;28;20048;-78
2023/01/16 04:33:50;;;;;;;3.55;3.33;;;2.90;99.90;;;;;;5010568;28;20047;-77
2023/01/16 04:36:19;;;;;;;6.03;2.90;;;2.80;99.90;;;;;;5004062;28;20046;-76
2023/01/16 04:38:52;;;;;;;4.32;2.95;;;2.80;99.90;;;;;;5003859;28;20049;-76
2023/01/16 04:41:37;;;;;;;3.72;2.60;;;2.80;99.90;;;;;;5017799;28;20045;-76
2023/01/16 04:44:07;;;;;;;3.20;2.33;;;2.90;99.90;;;;;;5003390;28;20185;-74
2023/01/16 04:46:34;;;;;;;2.80;2.60;;;2.80;99.90;;;;;;5013155;28;20136;-77
2023/01/16 04:49:01;;;;;;;2.78;2.58;;;2.80;99.90;;;;;;5020045;28;20048;-77
2023/01/16 04:51:28;;;;;;;3.70;3.00;;;2.80;99.90;;;;;;5015333;28;20041;-75
2023/01/16 04:53:55;;;;;;;3.50;2.85;;;2.70;99.90;;;;;;5018329;28;20430;-79
2023/01/16 04:56:22;;;;;;;2.80;2.60;;;2.70;99.90;;;;;;4995657;28;20046;-76
2023/01/16 04:58:50;;;;;;;3.53;2.75;;;2.70;99.90;;;;;;5012231;28;20053;-77
2023/01/16 05:01:17;;;;;;;3.22;3.03;;;2.70;99.90;;;;;;5001508;28;20076;-76
2023/01/16 05:03:44;;;;;;;3.80;2.60;;;2.70;99.90;;;;;;5015297;28;20115;-76
2023/01/16 05:06:12;;;;;;;2.97;2.78;;;2.70;99.90;;;;;;4998692;28;20059;-76
2023/01/16 05:08:39;;;;;;;3.03;2.55;;;2.70;99.90;;;;;;5020847;28;20422;-78
2023/01/16 05:11:06;;;;;;;3.80;3.30;;;2.70;99.90;;;;;;4992544;28;20046;-76
2023/01/16 05:13:32;;;;;;;3.72;2.60;;;2.60;99.90;;;;;;5017356;28;20141;-78
2023/01/16 05:15:59;;;;;;;3.42;3.13;;;2.70;99.90;;;;;;5007162;28;20048;-76
2023/01/16 05:18:26;;;;;;;3.85;2.63;;;2.60;99.90;;;;;;5009694;28;20111;-77
2023/01/16 05:20:53;;;;;;;2.90;2.70;;;2.60;99.90;;;;;;5021342;28;20041;-77
2023/01/16 05:23:19;;;;;;;6.85;2.78;;;2.60;99.90;;;;;;5022104;28;20041;-77
2023/01/16 05:25:48;;;;;;;5.38;3.60;;;2.60;99.90;;;;;;5015854;28;20039;-76
2023/01/16 05:28:15;;;;;;;6.32;3.38;;;2.60;99.90;;;;;;5008701;28;20052;-78
2023/01/16 05:30:41;;;;;;;7.38;3.83;;;2.70;99.90;;;;;;5002982;28;20044;-77
2023/01/16 05:33:08;;;;;;;7.20;4.60;;;2.70;99.90;;;;;;5013098;28;20105;-77
2023/01/16 05:35:35;;;;;;;7.72;4.43;;;2.60;99.90;;;;;;5017669;28;20048;-77
2023/01/16 05:38:01;;;;;;;4.78;4.35;;;2.60;99.90;;;;;;5001863;28;20037;-77
2023/01/16 05:40:28;;;;;;;6.72;4.47;;;2.50;99.90;;;;;;5011521;28;20502;-76
2023/01/16 05:42:55;;;;;;;8.15;4.57;;;2.50;99.90;;;;;;4999477;28;20042;-77
2023/01/16 05:45:21;;;;;;;5.95;4.75;;;2.50;99.90;;;;;;5012060;28;20115;-77
2023/01/16 05:47:48;;;;;;;11.05;5.20;;;2.50;99.90;;;;;;5005485;28;20056;-77
2023/01/16 05:50:15;;;;;;;10.77;4.97;;;2.40;99.90;;;;;;5016243;28;20051;-76
2023/01/16 05:52:44;;;;;;;6.97;5.15;;;2.40;99.90;;;;;;5008320;28;20315;-77
2023/01/16 05:55:11;;;;;;;6.32;4.75;;;2.40;99.90;;;;;;5015673;28;20073;-77
2023/01/16 05:57:38;;;;;;;10.40;5.60;;;2.40;99.90;;;;;;4996786;28;20630;-76
2023/01/16 06:00:05;;;;;;;8.45;5.45;;;2.50;99.90;;;;;;5014931;28;20502;-77
2023/01/16 06:02:32;;;;;;;10.60;5.43;;;2.50;99.90;;;;;;5004256;28;20417;-76
2023/01/16 06:04:59;;;;;;;18.60;6.63;;;2.60;99.90;;;;;;5002868;28;20119;-78
2023/01/16 06:07:26;;;;;;;13.75;5.22;;;2.50;99.90;;;;;;4998085;28;20049;-77
2023/01/16 06:09:53;;;;;;;8.13;5.60;;;2.50;99.90;;;;;;5005089;28;20026;-76
2023/01/16 06:12:20;;;;;;;8.38;5.15;;;2.50;99.90;;;;;;4994032;28;20277;-77
2023/01/16 06:14:47;;;;;;;15.07;5.47;;;2.60;99.90;;;;;;4996180;28;20390;-75
2023/01/16 06:17:15;;;;;;;5.47;4.93;;;2.60;99.90;;;;;;5004594;28;20051;-77
2023/01/16 06:19:46;;;;;;;8.50;5.07;;;2.70;99.90;;;;;;5006796;28;20434;-77
2023/01/16 06:22:13;;;;;;;8.98;5.28;;;2.70;99.90;;;;;;5015200;28;20052;-77
2023/01/16 06:24:39;;;;;;;8.55;5.43;;;2.70;99.90;;;;;;5004691;28;20317;-76
2023/01/16 06:27:06;;;;;;;11.07;6.30;;;2.70;99.90;;;;;;4999455;28;20129;-78
2023/01/16 06:29:33;;;;;;;12.20;6.30;;;2.70;99.90;;;;;;5014360;28;20590;-76
2023/01/16 06:32:00;;;;;;;13.70;7.13;;;2.70;99.90;;;;;;5013590;28;20045;-77
2023/01/16 06:34:27;;;;;;;13.48;7.90;;;2.70;99.90;;;;;;5001973;28;20053;-77
2023/01/16 06:36:54;;;;;;;13.20;9.05;;;2.80;99.90;;;;;;5017893;28;20048;-77
2023/01/16 06:39:20;;;;;;;13.38;8.13;;;2.70;99.90;;;;;;4998653;28;20045;-76
2023/01/16 06:41:48;;;;;;;8.63;6.43;;;2.70;99.90;;;;;;5013786;28;20045;-77
2023/01/16 06:44:15;;;;;;;7.55;6.25;;;2.80;99.90;;;;;;4999772;28;20103;-77
2023/01/16 06:46:41;;;;;;;8.13;5.43;;;2.80;99.90;;;;;;5014833;28;20048;-77
2023/01/16 06:49:11;;;;;;;10.55;5.57;;;2.80;99.90;;;;;;5022280;28;20268;-77
2023/01/16 06:51:37;;;;;;;7.20;5.63;;;2.90;99.90;;;;;;4995085;28;20136;-77
2023/01/16 06:54:04;;;;;;;7.07;5.25;;;2.90;99.90;;;;;;5014582;28;20148;-77
2023/01/16 06:56:31;;;;;;;7.40;4.88;;;3.00;99.90;;;;;;5016510;28;20068;-76
2023/01/16 06:58:57;;;;;;;16.35;5.57;;;2.90;99.90;;;;;;5006975;28;20141;-76
2023/01/16 07:01:24;;;;;;;10.98;5.78;;;2.90;99.90;;;;;;4993073;28;20116;-76
2023/01/16 07:03:51;;;;;;;8.32;5.28;;;2.90;99.90;;;;;;5002739;28;20060;-77
2023/01/16 07:06:18;;;;;;;8.07;5.63;;;2.90;99.90;;;;;;4997060;28;20041;-76
2023/01/16 07:08:46;;;;;;;5.63;5.10;;;2.90;99.90;;;;;;5012371;28;20052;-77
2023/01/16 07:11:13;;;;;;;8.10;5.57;;;2.90;99.90;;;;;;5015067;28;20554;-77
2023/01/16 07:13:39;;;;;;;6.80;5.28;;;3.00;99.90;;;;;;4999877;28;20463;-77
2023/01/16 07:24:29;;;;;;;6.53;5.85;;;3.20;99.90;;;;;;5049147;28;19995;-76
2023/01/16 07:26:59;;;;;;;7.20;6.47;;;3.30;99.90;;;;;;5018633;28;21094;-77
2023/01/16 07:29:29;;;;;;;9.15;6.10;;;3.30;99.90;;;;;;5004048;28;20454;-78
2023/01/16 07:31:59;;;;;;;7.07;5.80;;;3.30;99.90;;;;;;5002544;28;20059;-78
2023/01/16 07:34:25;;;;;;;10.43;6.68;;;3.30;99.90;;;;;;4998618;28;20352;-77
2023/01/16 07:36:52;;;;;;;7.60;6.07;;;3.30;99.90;;;;;;4995083;28;20312;-77
2023/01/16 07:39:19;;;;;;;10.10;6.88;;;3.30;99.90;;;;;;5000801;28;20050;-77
2023/01/16 07:41:48;;;;;;;8.23;7.15;;;3.30;99.90;;;;;;5022265;28;20194;-77
2023/01/16 07:44:24;;;;;;;7.20;6.80;;;3.40;99.90;;;;;;5016386;28;20073;-77
2023/01/16 07:46:50;;;;;;;7.80;7.30;;;3.40;99.90;;;;;;5018671;28;20041;-76
2023/01/16 07:49:18;;;;;;;11.10;10.20;;;3.40;99.90;;;;;;5032325;28;20541;-79
2023/01/16 07:51:45;;;;;;;12.18;11.27;;;3.50;99.90;;;;;;5014504;28;20044;-76
2023/01/16 07:54:13;;;;;;;12.45;11.60;;;3.50;99.90;;;;;;5015766;28;20291;-76
2023/01/16 07:56:40;;;;;;;22.45;14.10;;;3.50;99.90;;;;;;5000700;28;20556;-76
2023/01/16 07:59:07;;;;;;;14.05;12.93;;;3.50;99.90;;;;;;4999487;28;20133;-76
2023/01/16 08:01:34;;;;;;;16.08;14.57;;;3.50;99.90;;;;;;4997271;28;20101;-76
2023/01/16 08:04:01;;;;;;;14.23;13.40;;;3.50;99.90;;;;;;5021064;28;20103;-76
2023/01/16 08:06:28;;;;;;;14.80;13.52;;;3.50;99.90;;;;;;5016530;28;20045;-76
2023/01/16 08:08:55;;;;;;;13.77;12.88;;;3.60;99.90;;;;;;4999107;28;20438;-79
2023/01/16 08:11:38;;;;;;;13.25;12.35;;;3.60;99.90;;;;;;4997451;28;20047;-75
2023/01/16 08:14:06;;;;;;;12.93;12.13;;;3.50;99.90;;;;;;5010238;28;20045;-75
2023/01/16 08:16:33;;;;;;;13.20;11.93;;;3.50;99.90;;;;;;5023045;28;20091;-79
2023/01/16 08:19:00;;;;;;;11.38;10.65;;;3.60;99.90;;;;;;5009511;28;20136;-78
2023/01/16 08:21:27;;;;;;;11.70;10.95;;;3.50;99.90;;;;;;4998039;28;20429;-79
2023/01/16 08:23:54;;;;;;;12.48;11.57;;;3.50;99.90;;;;;;5005954;28;20053;-75
2023/01/16 08:26:21;;;;;;;12.57;11.35;;;3.50;99.90;;;;;;5023908;28;20048;-77
2023/01/16 08:28:48;;;;;;;12.77;11.35;;;3.50;99.90;;;;;;5017656;28;20068;-78
2023/01/16 08:31:22;;;;;;;16.88;13.02;;;3.50;99.90;;;;;;5008282;28;20049;-77
2023/01/16 08:33:50;;;;;;;14.68;12.98;;;3.50;99.90;;;;;;5013466;28;20769;-78
2023/01/16 08:36:19;;;;;;;13.73;12.55;;;3.50;99.90;;;;;;5013073;28;20061;-75
2023/01/16 08:38:50;;;;;;;12.73;11.73;;;3.60;99.90;;;;;;5013269;28;20045;-79
2023/01/16 08:52:35;;;;;;;23.00;21.00;;;3.70;99.90;;;;;;5010167;28;20084;-76
2023/01/16 08:55:04;;;;;;;13.98;13.07;;;3.70;99.90;;;;;;5009778;28;20049;-76
2023/01/16 08:57:30;;;;;;;14.32;13.38;;;3.70;99.90;;;;;;5014352;28;20537;-77
2023/01/16 08:59:57;;;;;;;16.38;15.18;;;3.80;99.90;;;;;;5018234;28;20115;-77
2023/01/16 09:02:26;;;;;;;15.88;14.85;;;3.80;99.90;;;;;;5016102;28;20037;-76
2023/01/16 09:04:54;;;;;;;14.80;13.77;;;3.80;99.90;;;;;;5018111;28;20491;-76
2023/01/16 09:07:22;;;;;;;15.90;14.98;;;3.80;99.90;;;;;;4997296;28;20376;-77
2023/01/16 09:09:49;;;;;;;14.45;13.40;;;3.80;99.90;;;;;;5018013;28;20053;-76
2023/01/16 09:15:02;;;;;;;16.08;14.73;;;3.80;99.90;;;;;;5030443;28;20331;-79
2023/01/16 09:17:29;;;;;;;16.27;15.23;;;3.90;99.90;;;;;;5014395;28;20515;-77
2023/01/16 09:19:56;;;;;;;16.42;15.18;;;3.90;99.90;;;;;;4995236;28;20129;-78
2023/01/16 09:22:23;;;;;;;16.45;15.55;;;3.90;99.90;;;;;;5014422;28;20401;-78
2023/01/16 09:24:49;;;;;;;17.20;15.98;;;3.90;99.90;;;;;;5013137;28;20153;-78
2023/01/16 09:27:18;;;;;;;17.90;16.45;;;4.00;99.90;;;;;;5004113;28;20041;-76
2023/01/16 09:29:45;;;;;;;18.13;16.63;;;4.00;99.90;;;;;;5016820;28;20044;-76
2023/01/16 09:32:12;;;;;;;19.23;17.80;;;4.00;99.90;;;;;;5019534;28;20040;-76
2023/01/16 09:34:41;;;;;;;19.52;17.95;;;4.00;99.90;;;;;;5007124;28;20041;-78
2023/01/16 09:37:08;;;;;;;18.75;17.75;;;4.10;99.90;;;;;;5016740;28;20037;-76
2023/01/16 09:39:35;;;;;;;19.35;18.00;;;4.00;99.90;;;;;;4995256;28;20042;-77
2023/01/16 09:45:22;;;;;;;19.17;17.85;;;4.00;99.90;;;;;;5015105;28;20069;-75
2023/01/16 09:47:53;;;;;;;19.52;17.88;;;4.00;99.90;;;;;;5004600;28;20578;-78
2023/01/16 09:50:25;;;;;;;19.88;18.77;;;4.00;99.90;;;;;;5016443;28;20633;-79
2023/01/16 09:58:47;;;;;;;21.88;20.17;;;3.90;99.90;;;;;;5019758;28;20057;-77
2023/01/16 10:01:23;;;;;;;19.67;17.98;;;4.00;99.90;;;;;;5021732;28;20072;-77
2023/01/16 10:04:03;;;;;;;19.73;18.42;;;4.00;99.90;;;;;;5014203;28;20068;-76
2023/01/16 10:06:41;;;;;;;18.23;17.00;;;4.00;99.90;;;;;;5000065;28;20512;-76
2023/01/16 10:09:24;;;;;;;19.25;17.88;;;4.00;99.90;;;;;;5017065;28;20045;-79
2023/01/16 10:12:01;;;;;;;20.48;19.30;;;4.10;99.90;;;;;;5016566;28;20037;-82
2023/01/16 10:14:57;;;;;;;20.15;18.80;;;4.10;99.90;;;;;;5015350;28;20461;-79
2023/01/16 10:17:36;;;;;;;23.80;22.15;;;4.10;99.90;;;;;;5015932;28;20471;-79
2023/01/16 10:20:21;;;;;;;19.67;18.38;;;4.10;99.90;;;;;;5010786;28;20136;-80
2023/01/16 10:23:23;;;;;;;19.52;18.25;;;4.10;99.90;;;;;;4998107;28;20076;-76
2023/01/16 10:26:34;;;;;;;19.80;18.15;;;4.10;99.90;;;;;;4981420;28;20048;-80
2023/01/16 10:29:22;;;;;;;19.13;17.90;;;4.10;99.90;;;;;;5032604;28;20429;-79
2023/01/16 10:32:26;;;;;;;18.92;17.92;;;4.10;99.90;;;;;;5018508;28;20118;-79
2023/01/16 10:35:06;;;;;;;19.77;18.63;;;4.20;99.90;;;;;;5008719;28;20045;-82
2023/01/16 10:37:35;;;;;;;19.73;18.33;;;4.20;99.90;;;;;;4999412;28;20114;-78
2023/01/16 10:40:11;;;;;;;20.95;19.52;;;4.30;99.90;;;;;;5001830;28;20109;-78
2023/01/16 10:51:04;;;;;;;19.90;18.90;;;4.50;99.90;;;;;;5004880;28;20187;-80
2023/01/16 10:53:34;;;;;;;19.25;18.23;;;4.50;99.90;;;;;;5019230;28;20061;-80
2023/01/16 10:56:02;;;;;;;19.48;18.50;;;4.50;99.90;;;;;;5017407;28;20068;-78
2023/01/16 10:58:32;;;;;;;20.75;19.10;;;4.50;99.90;;;;;;5018866;28;20053;-76
2023/01/16 11:01:20;;;;;;;21.33;19.88;;;4.60;99.90;;;;;;5001242;28;20055;-81
2023/01/16 11:03:49;;;;;;;20.50;19.35;;;4.70;99.90;;;;;;5030675;28;20045;-78
2023/01/16 11:06:20;;;;;;;20.33;19.33;;;4.70;99.90;;;;;;4992635;28;20049;-77
2023/01/16 11:08:51;;;;;;;19.70;18.55;;;4.90;99.90;;;;;;5003389;28;20049;-77
2023/01/16 11:20:21;;;;;;;21.90;20.55;;;4.70;99.90;;;;;;5012462;28;20072;-78
2023/01/16 11:23:18;;;;;;;22.17;20.65;;;4.70;99.90;;;;;;5013195;28;20462;-76
2023/01/16 11:25:47;;;;;;;21.70;20.50;;;4.80;99.90;;;;;;4997018;28;20069;-79
2023/01/16 11:28:22;;;;;;;21.02;19.65;;;4.80;99.90;;;;;;5014142;28;20132;-78
2023/01/16 11:30:53;;;;;;;20.52;19.33;;;4.80;99.90;;;;;;5009088;28;20137;-77
2023/01/16 11:33:27;;;;;;;21.40;20.35;;;4.70;99.90;;;;;;5004127;28;20092;-77
2023/01/16 11:36:00;;;;;;;21.33;20.23;;;4.70;99.90;;;;;;5006241;28;20132;-77
2023/01/16 11:38:29;;;;;;;19.75;18.85;;;4.80;99.90;;;;;;5003679;28;20533;-76
2023/01/16 11:40:58;;;;;;;20.45;19.23;;;4.70;99.90;;;;;;4990898;28;20049;-77
2023/01/16 11:46:27;;;;;;;24.15;22.52;;;4.50;99.90;;;;;;5013230;28;20071;-78
2023/01/16 11:49:22;;;;;;;18.90;17.90;;;4.40;99.90;;;;;;4994370;28;20053;-81
2023/01/16 11:51:53;;;;;;;18.05;16.95;;;4.40;99.90;;;;;;4986716;28;20106;-78
2023/01/16 11:54:26;;;;;;;16.48;15.48;;;4.30;99.90;;;;;;5010584;28;20053;-77
2023/01/16 11:57:05;;;;;;;16.83;15.75;;;4.30;99.90;;;;;;5014625;28;20104;-77
2023/01/16 12:00:05;;;;;;;15.32;14.55;;;4.10;99.90;;;;;;5024382;28;20128;-78
2023/01/16 12:03:02;;;;;;;15.68;14.85;;;4.10;99.90;;;;;;5011707;28;20048;-79
2023/01/16 12:05:56;;;;;;;15.25;14.55;;;4.10;99.90;;;;;;5012824;28;20037;-79
2023/01/16 12:08:23;;;;;;;15.60;14.60;;;4.10;99.90;;;;;;5013421;28;20207;-76
2023/01/16 12:11:12;;;;;;;17.20;16.15;;;4.00;99.90;;;;;;4993221;28;20045;-78
2023/01/16 12:14:18;;;;;;;16.65;15.27;;;4.00;99.90;;;;;;5005292;28;20474;-77
2023/01/16 12:16:57;;;;;;;14.38;13.57;;;4.00;99.90;;;;;;5006674;28;20049;-76
2023/01/16 12:19:51;;;;;;;16.83;15.70;;;4.00;99.90;;;;;;5008516;28;20052;-77
2023/01/16 12:22:24;;;;;;;13.30;12.70;;;4.00;99.90;;;;;;5007130;28;20574;-76
2023/01/16 12:25:23;;;;;;;14.57;13.40;;;4.00;99.90;;;;;;5003199;28;20049;-75
2023/01/16 12:28:16;;;;;;;13.73;12.65;;;4.00;99.90;;;;;;4998215;28;20144;-77
2023/01/16 12:31:35;;;;;;;13.55;12.88;;;4.00;99.90;;;;;;5031616;28;20517;-75
2023/01/16 12:34:49;;;;;;;13.50;12.40;;;3.90;99.90;;;;;;5011454;28;20045;-76
2023/01/16 12:37:23;;;;;;;12.65;11.85;;;3.90;99.90;;;;;;4928480;28;20045;-79
2023/01/16 12:40:34;;;;;;;11.75;11.15;;;3.90;99.90;;;;;;4931845;28;20069;-76
2023/01/16 12:43:21;;;;;;;12.75;12.02;;;3.80;99.90;;;;;;5020303;28;20431;-77
2023/01/16 12:46:11;;;;;;;11.35;10.75;;;3.80;99.90;;;;;;5007943;28;20739;-76
2023/01/16 12:48:43;;;;;;;12.05;11.10;;;3.80;99.90;;;;;;5016672;28;20049;-77
2023/01/16 12:51:19;;;;;;;11.27;10.77;;;3.80;99.90;;;;;;5005281;28;20106;-77
2023/01/16 12:54:12;;;;;;;12.80;11.55;;;3.70;99.90;;;;;;5011734;28;20041;-78
2023/01/16 12:56:51;;;;;;;11.02;10.45;;;3.80;99.90;;;;;;5030255;28;20076;-80
2023/01/16 12:59:22;;;;;;;11.25;10.55;;;3.80;99.90;;;;;;4991059;28;20057;-75
2023/01/16 13:01:59;;;;;;;10.90;10.30;;;3.70;99.90;;;;;;4989262;28;20037;-76
2023/01/16 13:04:41;;;;;;;9.95;9.38;;;3.80;99.90;;;;;;5009036;28;20038;-78
2023/01/16 13:07:14;;;;;;;10.50;9.98;;;3.70;99.90;;;;;;5017023;28;20068;-78
2023/01/16 13:09:50;;;;;;;9.32;8.93;;;3.70;99.90;;;;;;5016856;28;20278;-74
2023/01/16 13:15:21;;;;;;;9.90;9.40;;;3.70;99.90;;;;;;5016497;28;20140;-76
2023/01/16 13:18:12;;;;;;;12.07;11.20;;;3.70;99.90;;;;;;5015739;28;20049;-76
2023/01/16 13:20:39;;;;;;;13.00;12.00;;;3.60;99.90;;;;;;5011738;28;20045;-78
2023/01/16 13:23:17;;;;;;;11.40;10.63;;;3.60;99.90;;;;;;5013432;28;21114;-76
2023/01/16 13:25:57;;;;;;;10.93;10.43;;;3.60;99.90;;;;;;5016851;28;20033;-78
2023/01/16 13:28:54;;;;;;;9.10;8.70;;;3.50;99.90;;;;;;5022361;28;20056;-75
2023/01/16 13:31:30;;;;;;;9.70;9.20;;;3.40;99.90;;;;;;4982917;28;20655;-75
2023/01/16 13:34:07;;;;;;;10.43;9.93;;;3.40;99.90;;;;;;5011400;28;20133;-76
2023/01/16 13:36:48;;;;;;;14.52;13.45;;;3.40;99.90;;;;;;5009122;28;20055;-76
2023/01/16 13:39:35;;;;;;;19.40;17.48;;;3.40;99.90;;;;;;5013200;28;20079;-76
2023/01/16 13:42:05;;;;;;;15.75;14.60;;;3.50;99.90;;;;;;5006447;28;20145;-77
2023/01/16 13:47:31;;;;;;;76.57;43.10;;;3.40;99.90;;;;;;5028129;28;20060;-76
2023/01/16 13:50:22;;;;;;;13.57;12.43;;;3.50;99.90;;;;;;5016883;28;20120;-78
2023/01/16 13:52:50;;;;;;;12.55;11.63;;;3.50;99.90;;;;;;5016275;28;20150;-78
2023/01/16 13:55:33;;;;;;;11.07;10.27;;;3.50;99.90;;;;;;4992254;28;20045;-78
2023/01/16 13:58:21;;;;;;;11.13;10.27;;;3.50;99.90;;;;;;5017732;28;20145;-76
2023/01/16 14:00:59;;;;;;;12.23;11.20;;;3.50;99.90;;;;;;4995547;28;20115;-77
2023/01/16 14:03:32;;;;;;;40.42;34.85;;;3.50;99.90;;;;;;5013796;28;20049;-77
2023/01/16 14:06:07;;;;;;;15.02;13.70;;;3.40;99.90;;;;;;5006249;28;20045;-78
2023/01/16 14:09:07;;;;;;;9.07;8.63;;;3.50;99.90;;;;;;5018680;28;20080;-76
2023/01/16 14:11:42;;;;;;;24.65;22.30;;;3.40;99.90;;;;;;5008749;28;20102;-75
2023/01/16 14:17:20;;;;;;;10.82;10.10;;;3.30;99.90;;;;;;5004765;28;20065;-77
2023/01/16 14:19:54;;;;;;;9.25;8.65;;;3.30;99.90;;;;;;5011250;28;20506;-78
2023/01/16 14:24:57;;;;;;;9.65;9.15;;;3.40;99.90;;;;;;5006052;28;20041;-76
2023/01/16 14:27:43;;;;;;;12.88;11.98;;;3.40;99.90;;;;;;4998914;28;20037;-77